sensor_id;sensor_type;location;lat;lon;timestamp;temperature;humidity
78731;SHT31;68055;51.978;5.658;2024-01-15T00:00:16;5.7;68.9
78731;SHT31;68055;51.978;5.658;2024-01-15T00:02:45;5.7;69.1
78731;SHT31;68055;51.978;5.658;2024-01-15T00:05:13;5.7;69.2
78731;SHT31;68055;51.978;5.658;2024-01-15T00:07:42;5.6;69.3
78731;SHT31;68055;51.978;5.658;2024-01-15T00:10:11;5.6;69.7
78731;SHT31;68055;51.978;5.658;2024-01-15T00:12:39;5.6;69.7
78731;SHT31;68055;51.978;5.658;2024-01-15T00:15:09;5.5;69.6
78731;SHT31;68055;51.978;5.658;2024-01-15T00:17:38;5.5;69.4
78731;SHT31;68055;51.978;5.658;2024-01-15T00:20:10;5.5;69.4
78731;SHT31;68055;51.978;5.658;2024-01-15T00:22:39;5.4;69.4
78731;SHT31;68055;51.978;5.658;2024-01-15T00:25:10;5.4;69.6
78731;SHT31;68055;51.978;5.658;2024-01-15T00:27:39;5.4;69.5
78731;SHT31;68055;51.978;5.658;2024-01-15T00:30:08;5.3;69.5
78731;SHT31;68055;51.978;5.658;2024-01-15T00:32:37;5.3;69.7
78731;SHT31;68055;51.978;5.658;2024-01-15T00:35:06;5.3;69.8
78731;SHT31;68055;51.978;5.658;2024-01-15T00:37:35;5.3;69.6
78731;SHT31;68055;51.978;5.658;2024-01-15T00:40:04;5.2;69.8
78731;SHT31;68055;51.978;5.658;2024-01-15T00:42:34;5.2;69.8
78731;SHT31;68055;51.978;5.658;2024-01-15T00:45:03;5.2;69.8
78731;SHT31;68055;51.978;5.658;2024-01-15T00:47:31;5.2;69.9
78731;SHT31;68055;51.978;5.658;2024-01-15T00:50:00;5.1;70.1
78731;SHT31;68055;51.978;5.658;2024-01-15T00:52:29;5.1;70.2
78731;SHT31;68055;51.978;5.658;2024-01-15T00:54:58;5.1;70.3
78731;SHT31;68055;51.978;5.658;2024-01-15T00:57:27;5.1;70.2
78731;SHT31;68055;51.978;5.658;2024-01-15T00:59:55;5.1;70.2
78731;SHT31;68055;51.978;5.658;2024-01-15T01:02:24;5.0;70.2
78731;SHT31;68055;51.978;5.658;2024-01-15T01:04:54;5.0;70.3
78731;SHT31;68055;51.978;5.658;2024-01-15T01:07:23;5.0;70.3
78731;SHT31;68055;51.978;5.658;2024-01-15T01:09:51;5.0;70.3
78731;SHT31;68055;51.978;5.658;2024-01-15T01:12:22;5.0;70.2
78731;SHT31;68055;51.978;5.658;2024-01-15T01:14:50;5.0;70.1
78731;SHT31;68055;51.978;5.658;2024-01-15T01:17:19;5.0;69.9
78731;SHT31;68055;51.978;5.658;2024-01-15T01:19:47;4.9;70.3
78731;SHT31;68055;51.978;5.658;2024-01-15T01:22:16;4.9;70.3
78731;SHT31;68055;51.978;5.658;2024-01-15T01:24:44;4.9;70.7
78731;SHT31;68055;51.978;5.658;2024-01-15T01:27:13;4.9;71.0
78731;SHT31;68055;51.978;5.658;2024-01-15T01:29:41;5.0;70.6
78731;SHT31;68055;51.978;5.658;2024-01-15T01:32:10;5.0;70.3
78731;SHT31;68055;51.978;5.658;2024-01-15T01:34:42;5.0;70.1
78731;SHT31;68055;51.978;5.658;2024-01-15T01:37:11;5.0;69.8
78731;SHT31;68055;51.978;5.658;2024-01-15T01:39:41;5.0;69.8
78731;SHT31;68055;51.978;5.658;2024-01-15T01:42:10;4.9;69.6
78731;SHT31;68055;51.978;5.658;2024-01-15T01:44:39;4.9;69.5
78731;SHT31;68055;51.978;5.658;2024-01-15T01:47:10;4.9;69.7
78731;SHT31;68055;51.978;5.658;2024-01-15T01:49:39;4.9;69.2
78731;SHT31;68055;51.978;5.658;2024-01-15T01:52:09;4.9;69.5
78731;SHT31;68055;51.978;5.658;2024-01-15T01:54:40;4.9;69.4
78731;SHT31;68055;51.978;5.658;2024-01-15T01:57:13;4.9;69.5
78731;SHT31;68055;51.978;5.658;2024-01-15T01:59:42;4.9;69.4
78731;SHT31;68055;51.978;5.658;2024-01-15T02:02:11;4.9;69.3
78731;SHT31;68055;51.978;5.658;2024-01-15T02:04:40;4.9;68.9
78731;SHT31;68055;51.978;5.658;2024-01-15T02:07:09;4.9;69.2
78731;SHT31;68055;51.978;5.658;2024-01-15T02:09:38;4.8;68.9
78731;SHT31;68055;51.978;5.658;2024-01-15T02:12:07;4.8;68.9
78731;SHT31;68055;51.978;5.658;2024-01-15T02:14:36;4.8;68.8
78731;SHT31;68055;51.978;5.658;2024-01-15T02:17:06;4.8;68.8
78731;SHT31;68055;51.978;5.658;2024-01-15T02:19:34;4.8;68.7
78731;SHT31;68055;51.978;5.658;2024-01-15T02:22:03;4.8;68.6
78731;SHT31;68055;51.978;5.658;2024-01-15T02:24:32;4.8;68.8
78731;SHT31;68055;51.978;5.658;2024-01-15T02:27:01;4.8;68.7
78731;SHT31;68055;51.978;5.658;2024-01-15T02:29:30;4.8;68.8
78731;SHT31;68055;51.978;5.658;2024-01-15T02:31:59;4.8;68.8
78731;SHT31;68055;51.978;5.658;2024-01-15T02:34:31;4.8;68.8
78731;SHT31;68055;51.978;5.658;2024-01-15T02:36:59;4.8;69.3
78731;SHT31;68055;51.978;5.658;2024-01-15T02:39:28;4.8;69.5
78731;SHT31;68055;51.978;5.658;2024-01-15T02:41:57;4.8;69.5
78731;SHT31;68055;51.978;5.658;2024-01-15T02:44:26;4.8;69.2
78731;SHT31;68055;51.978;5.658;2024-01-15T02:46:54;4.8;69.4
78731;SHT31;68055;51.978;5.658;2024-01-15T02:49:23;4.8;69.5
78731;SHT31;68055;51.978;5.658;2024-01-15T02:51:51;4.9;69.4
78731;SHT31;68055;51.978;5.658;2024-01-15T02:54:20;4.9;69.4
78731;SHT31;68055;51.978;5.658;2024-01-15T02:56:50;4.9;69.4
78731;SHT31;68055;51.978;5.658;2024-01-15T02:59:19;4.9;69.1
78731;SHT31;68055;51.978;5.658;2024-01-15T03:01:48;4.9;68.7
78731;SHT31;68055;51.978;5.658;2024-01-15T03:04:18;5.0;68.7
78731;SHT31;68055;51.978;5.658;2024-01-15T03:06:47;5.0;68.9
78731;SHT31;68055;51.978;5.658;2024-01-15T03:09:15;5.0;69.1
78731;SHT31;68055;51.978;5.658;2024-01-15T03:11:44;5.0;69.1
78731;SHT31;68055;51.978;5.658;2024-01-15T03:14:13;5.0;69.1
78731;SHT31;68055;51.978;5.658;2024-01-15T03:16:41;5.0;69.2
78731;SHT31;68055;51.978;5.658;2024-01-15T03:19:10;5.0;69.1
78731;SHT31;68055;51.978;5.658;2024-01-15T03:21:39;5.0;69.0
78731;SHT31;68055;51.978;5.658;2024-01-15T03:24:08;5.0;68.7
78731;SHT31;68055;51.978;5.658;2024-01-15T03:26:36;5.0;68.5
78731;SHT31;68055;51.978;5.658;2024-01-15T03:29:07;5.0;68.5
78731;SHT31;68055;51.978;5.658;2024-01-15T03:31:36;5.0;68.6
78731;SHT31;68055;51.978;5.658;2024-01-15T03:34:04;5.0;68.6
78731;SHT31;68055;51.978;5.658;2024-01-15T03:36:33;5.0;68.6
78731;SHT31;68055;51.978;5.658;2024-01-15T03:39:02;5.0;68.4
78731;SHT31;68055;51.978;5.658;2024-01-15T03:41:30;5.0;68.4
78731;SHT31;68055;51.978;5.658;2024-01-15T03:43:59;5.0;68.6
78731;SHT31;68055;51.978;5.658;2024-01-15T03:46:27;5.0;68.4
78731;SHT31;68055;51.978;5.658;2024-01-15T03:48:56;4.9;68.5
78731;SHT31;68055;51.978;5.658;2024-01-15T03:51:25;4.9;68.3
78731;SHT31;68055;51.978;5.658;2024-01-15T03:53:53;4.9;68.6
78731;SHT31;68055;51.978;5.658;2024-01-15T03:56:22;4.9;68.6
78731;SHT31;68055;51.978;5.658;2024-01-15T03:58:50;4.9;68.8
78731;SHT31;68055;51.978;5.658;2024-01-15T04:01:19;4.9;69.0
78731;SHT31;68055;51.978;5.658;2024-01-15T04:03:47;4.9;69.1
78731;SHT31;68055;51.978;5.658;2024-01-15T04:06:18;4.9;69.1
78731;SHT31;68055;51.978;5.658;2024-01-15T04:08:46;4.9;69.2
78731;SHT31;68055;51.978;5.658;2024-01-15T04:11:15;4.9;69.3
78731;SHT31;68055;51.978;5.658;2024-01-15T04:13:43;4.9;69.3
78731;SHT31;68055;51.978;5.658;2024-01-15T04:16:12;4.9;69.2
78731;SHT31;68055;51.978;5.658;2024-01-15T04:18:40;5.0;69.3
78731;SHT31;68055;51.978;5.658;2024-01-15T04:21:11;5.0;69.1
78731;SHT31;68055;51.978;5.658;2024-01-15T04:23:40;5.0;68.9
78731;SHT31;68055;51.978;5.658;2024-01-15T04:26:09;5.1;69.1
78731;SHT31;68055;51.978;5.658;2024-01-15T04:28:38;5.1;68.9
78731;SHT31;68055;51.978;5.658;2024-01-15T04:31:07;5.1;69.0
78731;SHT31;68055;51.978;5.658;2024-01-15T04:33:35;5.1;69.1
78731;SHT31;68055;51.978;5.658;2024-01-15T04:36:04;5.1;69.0
78731;SHT31;68055;51.978;5.658;2024-01-15T04:38:33;5.2;69.1
78731;SHT31;68055;51.978;5.658;2024-01-15T04:41:02;5.2;69.1
78731;SHT31;68055;51.978;5.658;2024-01-15T04:43:31;5.2;68.7
78731;SHT31;68055;51.978;5.658;2024-01-15T04:46:00;5.2;68.7
78731;SHT31;68055;51.978;5.658;2024-01-15T04:48:29;5.2;68.5
78731;SHT31;68055;51.978;5.658;2024-01-15T04:50:58;5.2;68.5
78731;SHT31;68055;51.978;5.658;2024-01-15T04:53:27;5.2;68.6
78731;SHT31;68055;51.978;5.658;2024-01-15T04:55:55;5.2;68.2
78731;SHT31;68055;51.978;5.658;2024-01-15T04:58:24;5.2;68.1
78731;SHT31;68055;51.978;5.658;2024-01-15T05:00:53;5.2;68.0
78731;SHT31;68055;51.978;5.658;2024-01-15T05:03:24;5.2;67.8
78731;SHT31;68055;51.978;5.658;2024-01-15T05:05:53;5.1;68.0
78731;SHT31;68055;51.978;5.658;2024-01-15T05:08:21;5.1;68.0
78731;SHT31;68055;51.978;5.658;2024-01-15T05:10:50;5.1;68.1
78731;SHT31;68055;51.978;5.658;2024-01-15T05:13:18;5.1;68.1
78731;SHT31;68055;51.978;5.658;2024-01-15T05:15:47;5.0;68.4
78731;SHT31;68055;51.978;5.658;2024-01-15T05:18:16;5.0;68.6
78731;SHT31;68055;51.978;5.658;2024-01-15T05:20:45;5.0;68.8
78731;SHT31;68055;51.978;5.658;2024-01-15T05:23:13;5.0;68.8
78731;SHT31;68055;51.978;5.658;2024-01-15T05:25:42;5.0;69.0
78731;SHT31;68055;51.978;5.658;2024-01-15T05:28:10;5.0;69.1
78731;SHT31;68055;51.978;5.658;2024-01-15T05:30:39;5.0;69.4
78731;SHT31;68055;51.978;5.658;2024-01-15T05:33:08;5.0;69.6
78731;SHT31;68055;51.978;5.658;2024-01-15T05:35:36;5.0;69.6
78731;SHT31;68055;51.978;5.658;2024-01-15T05:38:05;5.0;69.7
78731;SHT31;68055;51.978;5.658;2024-01-15T05:40:34;5.0;69.7
78731;SHT31;68055;51.978;5.658;2024-01-15T05:43:03;5.0;69.6
78731;SHT31;68055;51.978;5.658;2024-01-15T05:45:31;5.0;69.7
78731;SHT31;68055;51.978;5.658;2024-01-15T05:48:00;5.0;69.8
78731;SHT31;68055;51.978;5.658;2024-01-15T05:50:28;5.0;70.0
78731;SHT31;68055;51.978;5.658;2024-01-15T05:52:57;5.0;70.0
78731;SHT31;68055;51.978;5.658;2024-01-15T05:55:26;5.0;70.1
78731;SHT31;68055;51.978;5.658;2024-01-15T05:57:54;5.0;70.1
78731;SHT31;68055;51.978;5.658;2024-01-15T06:00:23;5.0;70.1
78731;SHT31;68055;51.978;5.658;2024-01-15T06:02:52;4.9;70.1
78731;SHT31;68055;51.978;5.658;2024-01-15T06:05:20;4.9;70.1
78731;SHT31;68055;51.978;5.658;2024-01-15T06:07:49;4.9;70.3
78731;SHT31;68055;51.978;5.658;2024-01-15T06:10:17;4.9;70.4
78731;SHT31;68055;51.978;5.658;2024-01-15T06:12:46;4.9;70.5
78731;SHT31;68055;51.978;5.658;2024-01-15T06:15:14;4.9;70.7
78731;SHT31;68055;51.978;5.658;2024-01-15T06:17:45;5.0;70.7
78731;SHT31;68055;51.978;5.658;2024-01-15T06:20:14;5.0;70.8
78731;SHT31;68055;51.978;5.658;2024-01-15T06:22:42;5.0;70.7
78731;SHT31;68055;51.978;5.658;2024-01-15T06:25:13;5.0;70.6
78731;SHT31;68055;51.978;5.658;2024-01-15T06:27:42;5.1;70.3
78731;SHT31;68055;51.978;5.658;2024-01-15T06:30:11;5.1;70.2
78731;SHT31;68055;51.978;5.658;2024-01-15T06:32:40;5.1;70.2
78731;SHT31;68055;51.978;5.658;2024-01-15T06:35:11;5.1;69.9
78731;SHT31;68055;51.978;5.658;2024-01-15T06:37:41;5.1;69.9
78731;SHT31;68055;51.978;5.658;2024-01-15T06:40:11;5.1;69.7
78731;SHT31;68055;51.978;5.658;2024-01-15T06:42:40;5.1;69.5
78731;SHT31;68055;51.978;5.658;2024-01-15T06:45:09;5.1;69.1
78731;SHT31;68055;51.978;5.658;2024-01-15T06:47:38;5.1;69.0
78731;SHT31;68055;51.978;5.658;2024-01-15T06:50:09;5.1;69.2
78731;SHT31;68055;51.978;5.658;2024-01-15T06:52:38;5.1;69.3
78731;SHT31;68055;51.978;5.658;2024-01-15T06:55:07;5.1;69.3
78731;SHT31;68055;51.978;5.658;2024-01-15T06:57:36;5.1;69.3
78731;SHT31;68055;51.978;5.658;2024-01-15T07:00:05;5.1;69.2
78731;SHT31;68055;51.978;5.658;2024-01-15T07:02:35;5.1;69.3
78731;SHT31;68055;51.978;5.658;2024-01-15T07:05:04;5.0;69.4
78731;SHT31;68055;51.978;5.658;2024-01-15T07:07:33;5.0;69.7
78731;SHT31;68055;51.978;5.658;2024-01-15T07:10:02;5.0;69.7
78731;SHT31;68055;51.978;5.658;2024-01-15T07:12:32;5.0;69.8
78731;SHT31;68055;51.978;5.658;2024-01-15T07:15:00;5.0;69.7
78731;SHT31;68055;51.978;5.658;2024-01-15T07:17:30;5.0;69.7
78731;SHT31;68055;51.978;5.658;2024-01-15T07:19:59;5.0;69.7
78731;SHT31;68055;51.978;5.658;2024-01-15T07:22:28;5.0;69.8
78731;SHT31;68055;51.978;5.658;2024-01-15T07:24:56;5.0;69.9
78731;SHT31;68055;51.978;5.658;2024-01-15T07:27:25;5.0;69.8
78731;SHT31;68055;51.978;5.658;2024-01-15T07:29:53;5.0;69.8
78731;SHT31;68055;51.978;5.658;2024-01-15T07:32:22;5.0;69.8
78731;SHT31;68055;51.978;5.658;2024-01-15T07:34:50;5.0;69.9
78731;SHT31;68055;51.978;5.658;2024-01-15T07:37:19;5.0;70.1
78731;SHT31;68055;51.978;5.658;2024-01-15T07:39:49;5.0;69.9
78731;SHT31;68055;51.978;5.658;2024-01-15T07:42:18;5.0;70.0
78731;SHT31;68055;51.978;5.658;2024-01-15T07:44:47;5.0;70.1
78731;SHT31;68055;51.978;5.658;2024-01-15T07:47:17;5.0;69.9
78731;SHT31;68055;51.978;5.658;2024-01-15T07:49:46;4.9;69.6
78731;SHT31;68055;51.978;5.658;2024-01-15T07:52:16;4.9;69.6
78731;SHT31;68055;51.978;5.658;2024-01-15T07:54:45;4.9;69.7
78731;SHT31;68055;51.978;5.658;2024-01-15T07:57:14;4.9;69.9
78731;SHT31;68055;51.978;5.658;2024-01-15T07:59:42;4.9;70.1
78731;SHT31;68055;51.978;5.658;2024-01-15T08:02:11;4.8;70.2
78731;SHT31;68055;51.978;5.658;2024-01-15T08:04:39;4.8;70.4
78731;SHT31;68055;51.978;5.658;2024-01-15T08:07:09;4.8;70.5
78731;SHT31;68055;51.978;5.658;2024-01-15T08:09:39;4.8;70.5
78731;SHT31;68055;51.978;5.658;2024-01-15T08:12:08;4.8;70.5
78731;SHT31;68055;51.978;5.658;2024-01-15T08:14:38;4.8;70.5
78731;SHT31;68055;51.978;5.658;2024-01-15T08:17:06;4.8;70.7
78731;SHT31;68055;51.978;5.658;2024-01-15T08:19:35;4.8;70.6
78731;SHT31;68055;51.978;5.658;2024-01-15T08:22:04;4.9;70.4
78731;SHT31;68055;51.978;5.658;2024-01-15T08:24:34;4.9;70.4
78731;SHT31;68055;51.978;5.658;2024-01-15T08:27:03;4.9;70.5
78731;SHT31;68055;51.978;5.658;2024-01-15T08:29:32;4.9;70.5
78731;SHT31;68055;51.978;5.658;2024-01-15T08:32:01;4.9;70.5
78731;SHT31;68055;51.978;5.658;2024-01-15T08:34:30;4.9;70.6
78731;SHT31;68055;51.978;5.658;2024-01-15T08:36:59;4.9;70.7
78731;SHT31;68055;51.978;5.658;2024-01-15T08:39:29;4.9;70.8
78731;SHT31;68055;51.978;5.658;2024-01-15T08:41:57;4.9;70.9
78731;SHT31;68055;51.978;5.658;2024-01-15T08:44:26;4.9;70.7
78731;SHT31;68055;51.978;5.658;2024-01-15T08:46:54;4.9;70.5
78731;SHT31;68055;51.978;5.658;2024-01-15T08:49:23;4.9;70.4
78731;SHT31;68055;51.978;5.658;2024-01-15T08:51:51;4.9;70.6
78731;SHT31;68055;51.978;5.658;2024-01-15T08:54:20;4.9;70.8
78731;SHT31;68055;51.978;5.658;2024-01-15T08:56:49;4.9;70.7
78731;SHT31;68055;51.978;5.658;2024-01-15T08:59:17;4.9;70.6
78731;SHT31;68055;51.978;5.658;2024-01-15T09:01:51;5.0;70.7
78731;SHT31;68055;51.978;5.658;2024-01-15T09:04:19;5.0;70.5
78731;SHT31;68055;51.978;5.658;2024-01-15T09:06:50;5.0;70.4
78731;SHT31;68055;51.978;5.658;2024-01-15T09:09:19;5.0;70.5
78731;SHT31;68055;51.978;5.658;2024-01-15T09:11:47;5.0;70.6
78731;SHT31;68055;51.978;5.658;2024-01-15T09:14:18;5.0;70.6
78731;SHT31;68055;51.978;5.658;2024-01-15T09:16:48;5.0;70.4
78731;SHT31;68055;51.978;5.658;2024-01-15T09:19:17;5.0;70.4
78731;SHT31;68055;51.978;5.658;2024-01-15T09:21:45;5.0;70.2
78731;SHT31;68055;51.978;5.658;2024-01-15T09:24:14;5.0;70.1
78731;SHT31;68055;51.978;5.658;2024-01-15T09:26:42;5.0;70.2
78731;SHT31;68055;51.978;5.658;2024-01-15T09:29:11;5.0;70.4
78731;SHT31;68055;51.978;5.658;2024-01-15T09:31:42;5.1;70.5
78731;SHT31;68055;51.978;5.658;2024-01-15T09:34:12;5.1;70.7
78731;SHT31;68055;51.978;5.658;2024-01-15T09:36:42;5.1;70.7
78731;SHT31;68055;51.978;5.658;2024-01-15T09:39:10;5.1;70.4
78731;SHT31;68055;51.978;5.658;2024-01-15T09:41:39;5.1;69.9
78731;SHT31;68055;51.978;5.658;2024-01-15T09:44:08;5.1;69.9
78731;SHT31;68055;51.978;5.658;2024-01-15T09:46:39;5.1;69.6
78731;SHT31;68055;51.978;5.658;2024-01-15T09:49:11;5.1;69.7
78731;SHT31;68055;51.978;5.658;2024-01-15T09:51:41;5.1;69.5
78731;SHT31;68055;51.978;5.658;2024-01-15T09:54:11;5.1;69.6
78731;SHT31;68055;51.978;5.658;2024-01-15T09:56:45;5.1;69.8
78731;SHT31;68055;51.978;5.658;2024-01-15T09:59:15;5.1;70.0
78731;SHT31;68055;51.978;5.658;2024-01-15T10:01:45;5.0;70.0
78731;SHT31;68055;51.978;5.658;2024-01-15T10:04:14;5.0;70.3
78731;SHT31;68055;51.978;5.658;2024-01-15T10:06:45;5.0;70.6
78731;SHT31;68055;51.978;5.658;2024-01-15T10:09:14;5.0;70.7
78731;SHT31;68055;51.978;5.658;2024-01-15T10:11:44;5.0;70.8
78731;SHT31;68055;51.978;5.658;2024-01-15T10:14:13;5.0;70.7
78731;SHT31;68055;51.978;5.658;2024-01-15T10:16:42;5.0;70.6
78731;SHT31;68055;51.978;5.658;2024-01-15T10:19:11;5.0;70.8
78731;SHT31;68055;51.978;5.658;2024-01-15T10:21:39;5.0;70.8
78731;SHT31;68055;51.978;5.658;2024-01-15T10:24:08;4.9;70.7
78731;SHT31;68055;51.978;5.658;2024-01-15T10:26:37;4.9;70.8
78731;SHT31;68055;51.978;5.658;2024-01-15T10:29:05;4.9;70.8
78731;SHT31;68055;51.978;5.658;2024-01-15T10:31:34;4.9;70.8
78731;SHT31;68055;51.978;5.658;2024-01-15T10:34:12;4.9;71.1
78731;SHT31;68055;51.978;5.658;2024-01-15T10:36:45;4.9;71.9
78731;SHT31;68055;51.978;5.658;2024-01-15T10:39:21;4.9;72.5
78731;SHT31;68055;51.978;5.658;2024-01-15T10:41:50;5.0;72.6
78731;SHT31;68055;51.978;5.658;2024-01-15T10:44:19;5.0;72.3
78731;SHT31;68055;51.978;5.658;2024-01-15T10:46:50;5.1;72.5
78731;SHT31;68055;51.978;5.658;2024-01-15T10:49:20;5.1;72.9
78731;SHT31;68055;51.978;5.658;2024-01-15T10:51:52;5.2;72.5
78731;SHT31;68055;51.978;5.658;2024-01-15T10:54:23;5.2;71.9
78731;SHT31;68055;51.978;5.658;2024-01-15T10:56:52;5.3;70.8
78731;SHT31;68055;51.978;5.658;2024-01-15T10:59:21;5.3;70.3
78731;SHT31;68055;51.978;5.658;2024-01-15T11:01:52;5.3;69.7
78731;SHT31;68055;51.978;5.658;2024-01-15T11:04:22;5.4;69.7
78731;SHT31;68055;51.978;5.658;2024-01-15T11:06:55;5.4;69.7
78731;SHT31;68055;51.978;5.658;2024-01-15T11:09:24;5.4;70.1
78731;SHT31;68055;51.978;5.658;2024-01-15T11:12:09;5.4;70.3
78731;SHT31;68055;51.978;5.658;2024-01-15T11:14:41;5.4;70.2
78731;SHT31;68055;51.978;5.658;2024-01-15T11:17:11;5.5;70.2
78731;SHT31;68055;51.978;5.658;2024-01-15T11:19:43;5.5;70.6
78731;SHT31;68055;51.978;5.658;2024-01-15T11:25:14;5.6;70.3
78731;SHT31;68055;51.978;5.658;2024-01-15T11:27:45;5.6;70.4
78731;SHT31;68055;51.978;5.658;2024-01-15T11:30:18;5.6;70.0
78731;SHT31;68055;51.978;5.658;2024-01-15T11:32:48;5.7;69.7
78731;SHT31;68055;51.978;5.658;2024-01-15T11:35:17;5.7;69.5
78731;SHT31;68055;51.978;5.658;2024-01-15T11:38:00;5.7;69.7
78731;SHT31;68055;51.978;5.658;2024-01-15T11:40:39;5.7;69.6
78731;SHT31;68055;51.978;5.658;2024-01-15T11:43:09;5.7;69.5
78731;SHT31;68055;51.978;5.658;2024-01-15T11:45:41;5.7;69.2
78731;SHT31;68055;51.978;5.658;2024-01-15T11:48:16;5.7;69.3
78731;SHT31;68055;51.978;5.658;2024-01-15T11:50:46;5.7;69.3
78731;SHT31;68055;51.978;5.658;2024-01-15T11:53:24;5.7;69.2
78731;SHT31;68055;51.978;5.658;2024-01-15T11:55:58;5.7;69.2
78731;SHT31;68055;51.978;5.658;2024-01-15T11:58:28;5.7;69.4
78731;SHT31;68055;51.978;5.658;2024-01-15T12:00:57;5.7;69.7
78731;SHT31;68055;51.978;5.658;2024-01-15T12:03:26;5.7;69.7
78731;SHT31;68055;51.978;5.658;2024-01-15T12:05:54;5.7;69.6
78731;SHT31;68055;51.978;5.658;2024-01-15T12:08:25;5.7;69.7
78731;SHT31;68055;51.978;5.658;2024-01-15T12:10:56;5.7;69.6
78731;SHT31;68055;51.978;5.658;2024-01-15T12:13:24;5.7;69.3
78731;SHT31;68055;51.978;5.658;2024-01-15T12:15:54;5.7;69.1
78731;SHT31;68055;51.978;5.658;2024-01-15T12:18:25;5.7;69.0
78731;SHT31;68055;51.978;5.658;2024-01-15T12:20:55;5.7;69.0
78731;SHT31;68055;51.978;5.658;2024-01-15T12:23:24;5.7;69.3
78731;SHT31;68055;51.978;5.658;2024-01-15T12:25:53;5.7;69.7
78731;SHT31;68055;51.978;5.658;2024-01-15T12:28:22;5.7;69.6
78731;SHT31;68055;51.978;5.658;2024-01-15T12:30:51;5.7;69.4
78731;SHT31;68055;51.978;5.658;2024-01-15T12:33:19;5.7;69.4
78731;SHT31;68055;51.978;5.658;2024-01-15T12:35:49;5.7;69.3
78731;SHT31;68055;51.978;5.658;2024-01-15T12:38:23;5.7;69.5
78731;SHT31;68055;51.978;5.658;2024-01-15T12:40:53;5.7;69.8
78731;SHT31;68055;51.978;5.658;2024-01-15T12:43:23;5.7;70.1
78731;SHT31;68055;51.978;5.658;2024-01-15T12:45:52;5.8;70.2
78731;SHT31;68055;51.978;5.658;2024-01-15T12:48:21;5.8;69.9
78731;SHT31;68055;51.978;5.658;2024-01-15T12:50:52;5.8;70.1
78731;SHT31;68055;51.978;5.658;2024-01-15T12:53:20;5.8;69.6
78731;SHT31;68055;51.978;5.658;2024-01-15T12:55:51;5.8;68.9
78731;SHT31;68055;51.978;5.658;2024-01-15T12:58:19;5.8;68.8
78731;SHT31;68055;51.978;5.658;2024-01-15T13:00:48;5.8;68.8
78731;SHT31;68055;51.978;5.658;2024-01-15T13:03:17;5.8;68.9
78731;SHT31;68055;51.978;5.658;2024-01-15T13:05:47;5.8;69.4
78731;SHT31;68055;51.978;5.658;2024-01-15T13:08:17;5.9;69.0
78731;SHT31;68055;51.978;5.658;2024-01-15T13:10:46;5.9;67.9
78731;SHT31;68055;51.978;5.658;2024-01-15T13:13:15;5.8;67.8
78731;SHT31;68055;51.978;5.658;2024-01-15T13:15:43;5.8;67.9
78731;SHT31;68055;51.978;5.658;2024-01-15T13:18:12;5.8;68.0
78731;SHT31;68055;51.978;5.658;2024-01-15T13:20:41;5.8;67.5
78731;SHT31;68055;51.978;5.658;2024-01-15T13:23:10;5.7;68.0
78731;SHT31;68055;51.978;5.658;2024-01-15T13:25:38;5.7;68.1
78731;SHT31;68055;51.978;5.658;2024-01-15T13:28:07;5.7;68.0
78731;SHT31;68055;51.978;5.658;2024-01-15T13:30:36;5.7;68.3
78731;SHT31;68055;51.978;5.658;2024-01-15T13:33:05;5.7;68.6
78731;SHT31;68055;51.978;5.658;2024-01-15T13:35:35;5.7;68.6
78731;SHT31;68055;51.978;5.658;2024-01-15T13:38:04;5.7;68.5
78731;SHT31;68055;51.978;5.658;2024-01-15T13:40:35;5.7;68.5
78731;SHT31;68055;51.978;5.658;2024-01-15T13:43:04;5.7;67.9
78731;SHT31;68055;51.978;5.658;2024-01-15T13:45:34;5.7;68.0
78731;SHT31;68055;51.978;5.658;2024-01-15T13:48:04;5.7;67.7
78731;SHT31;68055;51.978;5.658;2024-01-15T13:50:34;5.7;67.4
78731;SHT31;68055;51.978;5.658;2024-01-15T13:53:04;5.7;67.8
78731;SHT31;68055;51.978;5.658;2024-01-15T13:55:32;5.6;68.0
78731;SHT31;68055;51.978;5.658;2024-01-15T13:58:01;5.6;68.3
78731;SHT31;68055;51.978;5.658;2024-01-15T14:00:32;5.6;68.1
78731;SHT31;68055;51.978;5.658;2024-01-15T14:03:01;5.6;68.3
78731;SHT31;68055;51.978;5.658;2024-01-15T14:05:30;5.6;68.1
78731;SHT31;68055;51.978;5.658;2024-01-15T14:07:59;5.6;68.1
78731;SHT31;68055;51.978;5.658;2024-01-15T14:10:28;5.6;68.2
78731;SHT31;68055;51.978;5.658;2024-01-15T14:12:56;5.5;68.2
78731;SHT31;68055;51.978;5.658;2024-01-15T14:15:25;5.5;68.5
78731;SHT31;68055;51.978;5.658;2024-01-15T14:17:54;5.5;68.6
78731;SHT31;68055;51.978;5.658;2024-01-15T14:20:24;5.5;68.5
78731;SHT31;68055;51.978;5.658;2024-01-15T14:22:53;5.5;68.7
78731;SHT31;68055;51.978;5.658;2024-01-15T14:25:21;5.5;68.9
78731;SHT31;68055;51.978;5.658;2024-01-15T14:27:50;5.5;69.0
78731;SHT31;68055;51.978;5.658;2024-01-15T14:30:21;5.5;69.2
78731;SHT31;68055;51.978;5.658;2024-01-15T14:32:49;5.4;69.1
78731;SHT31;68055;51.978;5.658;2024-01-15T14:35:18;5.4;69.1
78731;SHT31;68055;51.978;5.658;2024-01-15T14:37:47;5.4;68.9
78731;SHT31;68055;51.978;5.658;2024-01-15T14:40:18;5.4;69.2
78731;SHT31;68055;51.978;5.658;2024-01-15T14:42:46;5.4;69.3
78731;SHT31;68055;51.978;5.658;2024-01-15T14:45:15;5.4;69.4
78731;SHT31;68055;51.978;5.658;2024-01-15T14:47:43;5.4;69.2
78731;SHT31;68055;51.978;5.658;2024-01-15T14:50:13;5.4;68.8
78731;SHT31;68055;51.978;5.658;2024-01-15T14:52:41;5.4;68.6
78731;SHT31;68055;51.978;5.658;2024-01-15T14:55:11;5.3;68.3
78731;SHT31;68055;51.978;5.658;2024-01-15T14:57:40;5.3;68.3
78731;SHT31;68055;51.978;5.658;2024-01-15T15:00:09;5.3;68.1
78731;SHT31;68055;51.978;5.658;2024-01-15T15:02:40;5.3;68.3
78731;SHT31;68055;51.978;5.658;2024-01-15T15:05:09;5.3;68.7
78731;SHT31;68055;51.978;5.658;2024-01-15T15:07:39;5.3;68.6
78731;SHT31;68055;51.978;5.658;2024-01-15T15:10:11;5.3;68.3
78731;SHT31;68055;51.978;5.658;2024-01-15T15:12:42;5.3;68.6
78731;SHT31;68055;51.978;5.658;2024-01-15T15:15:10;5.3;68.4
78731;SHT31;68055;51.978;5.658;2024-01-15T15:17:40;5.3;68.9
78731;SHT31;68055;51.978;5.658;2024-01-15T15:20:09;5.3;69.0
78731;SHT31;68055;51.978;5.658;2024-01-15T15:22:38;5.3;69.2
78731;SHT31;68055;51.978;5.658;2024-01-15T15:25:07;5.3;69.4
78731;SHT31;68055;51.978;5.658;2024-01-15T15:27:38;5.3;69.4
78731;SHT31;68055;51.978;5.658;2024-01-15T15:30:07;5.3;69.3
78731;SHT31;68055;51.978;5.658;2024-01-15T15:32:37;5.3;69.2
78731;SHT31;68055;51.978;5.658;2024-01-15T15:35:06;5.3;69.0
78731;SHT31;68055;51.978;5.658;2024-01-15T15:37:36;5.3;69.0
78731;SHT31;68055;51.978;5.658;2024-01-15T15:40:05;5.3;68.9
78731;SHT31;68055;51.978;5.658;2024-01-15T15:42:35;5.3;69.2
78731;SHT31;68055;51.978;5.658;2024-01-15T15:45:04;5.2;69.0
78731;SHT31;68055;51.978;5.658;2024-01-15T15:47:33;5.2;69.1
78731;SHT31;68055;51.978;5.658;2024-01-15T15:50:01;5.2;69.2
78731;SHT31;68055;51.978;5.658;2024-01-15T15:52:30;5.2;69.4
78731;SHT31;68055;51.978;5.658;2024-01-15T15:54:58;5.2;69.3
78731;SHT31;68055;51.978;5.658;2024-01-15T15:57:29;5.2;69.4
78731;SHT31;68055;51.978;5.658;2024-01-15T15:59:58;5.2;69.5
78731;SHT31;68055;51.978;5.658;2024-01-15T16:02:26;5.2;69.6
78731;SHT31;68055;51.978;5.658;2024-01-15T16:04:57;5.2;69.6
78731;SHT31;68055;51.978;5.658;2024-01-15T16:07:26;5.2;69.4
78731;SHT31;68055;51.978;5.658;2024-01-15T16:09:55;5.2;69.1
78731;SHT31;68055;51.978;5.658;2024-01-15T16:12:23;5.2;69.3
78731;SHT31;68055;51.978;5.658;2024-01-15T16:14:54;5.2;69.4
78731;SHT31;68055;51.978;5.658;2024-01-15T16:17:22;5.3;69.1
78731;SHT31;68055;51.978;5.658;2024-01-15T16:19:51;5.3;68.9
78731;SHT31;68055;51.978;5.658;2024-01-15T16:22:20;5.3;68.5
78731;SHT31;68055;51.978;5.658;2024-01-15T16:24:48;5.3;68.8
78731;SHT31;68055;51.978;5.658;2024-01-15T16:27:17;5.3;68.6
78731;SHT31;68055;51.978;5.658;2024-01-15T16:29:45;5.3;68.6
78731;SHT31;68055;51.978;5.658;2024-01-15T16:32:14;5.3;68.4